Time;durP1;ratioP1;P1;durP2;ratioP2;P2;SDS_P1;SDS_P2;PMS_P1;PMS_P2;Temp;Humidity;BMP_temperature;BMP_pressure;BME280_temperature;BME280_humidity;BME280_pressure;Samples;Min_cycle;Max_cycle;Signal;HPM_P1;HPM_P2
2023/08/14 00:00:42;;;;;;;;;;;;;;;24.73;100.00;98060.63;5083256;28;19924;-75
2023/08/14 00:03:08;;;;;;;;;;;;;;;24.93;100.00;98062.34;5078015;28;19928;-76
2023/08/14 00:05:34;;;;;;;;;;;;;;;25.12;100.00;98065.94;5077695;28;19924;-75
2023/08/14 00:08:01;;;;;;;;;;;;;;;25.28;100.00;98054.19;5070040;28;20343;-76
2023/08/14 00:10:27;;;;;;;;;;;;;;;25.19;100.00;98043.47;5075702;28;20401;-75
2023/08/14 00:12:55;;;;;;;;;;;;;;;25.10;100.00;98046.34;5078128;28;20710;-75
2023/08/14 00:15:21;;;;;;;;;;;;;;;25.21;100.00;98041.16;5078187;28;19934;-74
2023/08/14 00:17:48;;;;;;;;;;;;;;;25.00;100.00;98029.72;5073408;28;19924;-75
2023/08/14 00:20:14;;;;;;;;;;;;;;;24.82;100.00;98034.72;5073572;28;20011;-75
2023/08/14 00:22:40;;;;;;;;;;;;;;;24.99;100.00;98034.41;5050543;28;20005;-75
2023/08/14 00:25:07;;;;;;;;;;;;;;;25.18;100.00;98041.88;5072879;28;20330;-75
2023/08/14 00:27:33;;;;;;;;;;;;;;;25.27;100.00;98041.66;5075336;28;20018;-75
2023/08/14 00:30:01;;;;;;;;;;;;;;;25.30;100.00;98036.28;5078589;28;20019;-74
2023/08/14 00:32:27;;;;;;;;;;;;;;;25.09;100.00;98022.94;5078220;28;20643;-74
2023/08/14 00:34:54;;;;;;;;;;;;;;;25.12;100.00;98022.22;5083340;28;20031;-74
2023/08/14 00:37:22;;;;;;;;;;;;;;;25.14;100.00;98021.84;5081110;28;20023;-74
2023/08/14 00:39:49;;;;;;;;;;;;;;;25.10;100.00;98020.97;5078668;28;19935;-74
2023/08/14 00:42:15;;;;;;;;;;;;;;;25.21;100.00;98025.56;5065087;28;19931;-74
2023/08/14 00:44:41;;;;;;;;;;;;;;;25.15;100.00;98015.25;5071712;28;20395;-76
2023/08/14 00:47:09;;;;;;;;;;;;;;;24.74;100.00;98016.56;5076779;28;19928;-75
2023/08/14 00:49:35;;;;;;;;;;;;;;;24.80;100.00;98017.88;5082108;28;19963;-76
2023/08/14 00:52:02;;;;;;;;;;;;;;;24.93;100.00;98024.88;5082475;28;19928;-75
2023/08/14 00:54:28;;;;;;;;;;;;;;;24.85;100.00;98014.13;5083352;28;20015;-74
2023/08/14 00:56:55;;;;;;;;;;;;;;;24.77;100.00;98013.13;5078752;28;19924;-76
2023/08/14 00:59:21;;;;;;;;;;;;;;;24.35;100.00;98014.78;5077762;28;19955;-76
2023/08/14 01:01:47;;;;;;;;;;;;;;;23.91;100.00;98014.75;5083044;28;20374;-75
2023/08/14 01:04:15;;;;;;;;;;;;;;;24.00;100.00;98018.13;5084168;28;20409;-75
2023/08/14 01:06:42;;;;;;;;;;;;;;;23.92;100.00;98019.03;5073981;28;19927;-76
2023/08/14 01:09:09;;;;;;;;;;;;;;;23.75;100.00;98015.81;5084015;28;20030;-76
2023/08/14 01:11:40;;;;;;;;;;;;;;;24.01;100.00;98010.72;5080394;28;20436;-75
2023/08/14 01:14:10;;;;;;;;;;;;;;;24.30;100.00;98013.09;5083918;28;20019;-75
2023/08/14 01:16:41;;;;;;;;;;;;;;;24.51;100.00;98007.41;5082297;28;19928;-74
2023/08/14 01:19:10;;;;;;;;;;;;;;;24.69;100.00;98003.19;5083878;28;20042;-75
2023/08/14 01:21:43;;;;;;;;;;;;;;;24.84;100.00;98002.41;5073808;28;19928;-75
2023/08/14 01:24:14;;;;;;;;;;;;;;;24.86;100.00;98007.50;5083990;28;20418;-75
2023/08/14 01:26:42;;;;;;;;;;;;;;;24.91;100.00;98002.59;5073000;28;20040;-76
2023/08/14 01:29:08;;;;;;;;;;;;;;;24.97;100.00;97997.66;5069931;28;20026;-76
2023/08/14 01:31:35;;;;;;;;;;;;;;;25.01;100.00;97993.84;5070068;28;19924;-76
2023/08/14 01:34:01;;;;;;;;;;;;;;;25.05;100.00;97993.91;5055269;28;20023;-75
2023/08/14 01:36:31;;;;;;;;;;;;;;;25.08;100.00;97998.66;5079513;28;19924;-75
2023/08/14 01:39:05;;;;;;;;;;;;;;;24.95;100.00;98000.72;5079103;28;20020;-76
2023/08/14 01:41:35;;;;;;;;;;;;;;;24.79;100.00;97996.41;5068571;28;19928;-75
2023/08/14 01:44:03;;;;;;;;;;;;;;;24.56;100.00;97990.75;5068987;28;19933;-75
2023/08/14 01:46:32;;;;;;;;;;;;;;;24.37;100.00;97979.75;5077311;28;20648;-75
2023/08/14 01:48:59;;;;;;;;;;;;;;;24.52;100.00;97976.22;5084439;28;19931;-75
2023/08/14 01:51:26;;;;;;;;;;;;;;;24.56;100.00;97983.38;5060642;28;19935;-76
2023/08/14 01:53:53;;;;;;;;;;;;;;;24.47;100.00;97979.22;5078123;28;20023;-76
2023/08/14 01:56:19;;;;;;;;;;;;;;;24.63;100.00;97966.38;5081116;28;20015;-76
2023/08/14 01:58:46;;;;;;;;;;;;;;;24.76;100.00;97969.81;5085044;28;19975;-75
2023/08/14 02:01:14;;;;;;;;;;;;;;;24.81;100.00;97973.06;5083215;28;19924;-76
2023/08/14 02:03:40;;;;;;;;;;;;;;;24.82;100.00;97963.72;5078705;28;19998;-75
2023/08/14 02:06:06;;;;;;;;;;;;;;;24.71;100.00;97960.72;5077425;28;20291;-75
2023/08/14 02:08:33;;;;;;;;;;;;;;;24.71;100.00;97958.00;5080381;28;19928;-77
2023/08/14 02:10:59;;;;;;;;;;;;;;;24.69;100.00;97965.75;5082285;28;19974;-77
2023/08/14 02:13:25;;;;;;;;;;;;;;;24.75;100.00;97965.47;5075827;28;20455;-76
2023/08/14 02:15:52;;;;;;;;;;;;;;;24.82;100.00;97971.91;5071974;28;20484;-75
2023/08/14 02:18:20;;;;;;;;;;;;;;;24.70;100.00;97967.31;5076970;28;20539;-76
2023/08/14 02:20:47;;;;;;;;;;;;;;;24.71;100.00;97976.31;5070666;28;19932;-76
2023/08/14 02:23:13;;;;;;;;;;;;;;;24.69;100.00;97973.16;5078189;28;19937;-76
2023/08/14 02:25:40;;;;;;;;;;;;;;;24.73;100.00;97988.47;5082909;28;20023;-75
2023/08/14 02:28:06;;;;;;;;;;;;;;;24.76;100.00;97991.66;5078567;28;19964;-75
2023/08/14 02:30:33;;;;;;;;;;;;;;;24.58;100.00;98002.91;5075659;28;20055;-76
2023/08/14 02:32:59;;;;;;;;;;;;;;;24.54;100.00;97995.78;5077828;28;19970;-75
2023/08/14 02:35:27;;;;;;;;;;;;;;;24.59;100.00;97995.50;5061097;28;20023;-76
2023/08/14 02:37:53;;;;;;;;;;;;;;;24.64;100.00;98001.50;5077519;28;19931;-75
2023/08/14 02:40:19;;;;;;;;;;;;;;;24.52;100.00;98004.31;5085600;28;19924;-76
2023/08/14 02:42:46;;;;;;;;;;;;;;;24.51;100.00;98002.72;5080487;28;19928;-75
2023/08/14 02:45:12;;;;;;;;;;;;;;;24.32;100.00;98010.81;5084350;28;19924;-75
2023/08/14 02:47:39;;;;;;;;;;;;;;;24.00;100.00;98011.84;5077737;28;20019;-75
2023/08/14 02:50:05;;;;;;;;;;;;;;;23.98;100.00;98011.44;5078112;28;19928;-74
2023/08/14 02:52:33;;;;;;;;;;;;;;;24.13;100.00;98018.88;5085577;28;20027;-76
2023/08/14 02:54:59;;;;;;;;;;;;;;;23.92;100.00;98021.00;5082521;28;20326;-76
2023/08/14 02:57:26;;;;;;;;;;;;;;;23.72;100.00;98024.69;5077713;28;20446;-75
2023/08/14 02:59:52;;;;;;;;;;;;;;;23.70;100.00;98016.06;5081767;28;20275;-75
2023/08/14 03:02:18;;;;;;;;;;;;;;;23.87;100.00;98015.78;5080399;28;19925;-75
2023/08/14 03:04:45;;;;;;;;;;;;;;;23.78;100.00;98001.50;5063571;28;19932;-76
2023/08/14 03:07:11;;;;;;;;;;;;;;;23.97;100.00;98009.81;5073581;28;20027;-75
2023/08/14 03:09:39;;;;;;;;;;;;;;;24.10;100.00;98008.63;5074655;28;19934;-75
2023/08/14 03:12:05;;;;;;;;;;;;;;;24.19;100.00;98001.13;5081980;28;19974;-75
2023/08/14 03:14:32;;;;;;;;;;;;;;;24.24;100.00;97998.13;5074032;28;19924;-75
2023/08/14 03:16:58;;;;;;;;;;;;;;;24.19;100.00;97995.66;5080726;28;19924;-75
2023/08/14 03:19:24;;;;;;;;;;;;;;;24.23;100.00;97991.09;5078927;28;19963;-75
2023/08/14 03:21:52;;;;;;;;;;;;;;;24.23;100.00;97982.91;5083984;28;20034;-75
2023/08/14 03:24:18;;;;;;;;;;;;;;;24.17;100.00;97987.00;5077345;28;20362;-75
2023/08/14 03:26:46;;;;;;;;;;;;;;;24.11;100.00;97993.88;5064287;28;19970;-75
2023/08/14 03:29:12;;;;;;;;;;;;;;;24.24;100.00;98000.84;5074983;28;19928;-76
2023/08/14 03:31:38;;;;;;;;;;;;;;;24.33;100.00;98001.47;5069219;28;19954;-75
2023/08/14 03:34:05;;;;;;;;;;;;;;;24.24;100.00;98003.56;5079713;28;19930;-76
2023/08/14 03:36:31;;;;;;;;;;;;;;;24.30;100.00;98013.09;5079651;28;20024;-75
2023/08/14 03:38:57;;;;;;;;;;;;;;;24.03;100.00;98009.22;5080478;28;19928;-74
2023/08/14 03:41:24;;;;;;;;;;;;;;;23.71;100.00;98021.16;5078764;28;19960;-75
2023/08/14 03:43:51;;;;;;;;;;;;;;;23.86;100.00;98008.75;5069003;28;19956;-75
2023/08/14 03:46:18;;;;;;;;;;;;;;;24.07;100.00;98001.16;5084947;28;19940;-74
2023/08/14 03:48:44;;;;;;;;;;;;;;;24.20;100.00;98007.38;5076088;28;19978;-75
2023/08/14 03:51:10;;;;;;;;;;;;;;;24.27;100.00;98005.59;5072708;28;20474;-75
2023/08/14 03:53:37;;;;;;;;;;;;;;;24.32;100.00;97999.91;5071246;28;20780;-76
2023/08/14 03:56:03;;;;;;;;;;;;;;;24.27;100.00;97997.41;5083787;28;20391;-75
2023/08/14 03:58:30;;;;;;;;;;;;;;;24.30;100.00;97987.72;5085511;28;19963;-76
2023/08/14 04:00:57;;;;;;;;;;;;;;;24.23;100.00;97982.13;5076854;28;19932;-77
2023/08/14 04:03:24;;;;;;;;;;;;;;;24.26;100.00;97993.13;5083849;28;20019;-75
2023/08/14 04:05:53;;;;;;;;;;;;;;;24.25;100.00;97986.06;5075184;28;20015;-75
2023/08/14 04:08:19;;;;;;;;;;;;;;;24.28;100.00;97985.38;5082721;28;19978;-75
2023/08/14 04:10:45;;;;;;;;;;;;;;;24.31;100.00;97984.66;5076517;28;20010;-76
2023/08/14 04:13:11;;;;;;;;;;;;;;;24.37;100.00;97986.00;5081780;28;20027;-75
2023/08/14 04:15:38;;;;;;;;;;;;;;;24.39;100.00;97989.16;5075906;28;20024;-75
2023/08/14 04:18:06;;;;;;;;;;;;;;;24.39;100.00;97980.16;5076900;28;19928;-75
2023/08/14 04:20:33;;;;;;;;;;;;;;;24.35;100.00;97982.84;5082720;28;19935;-75
2023/08/14 04:22:59;;;;;;;;;;;;;;;24.36;100.00;97978.94;5066700;28;20007;-74
2023/08/14 04:25:25;;;;;;;;;;;;;;;24.37;100.00;97985.19;5082389;28;19935;-76
2023/08/14 04:27:52;;;;;;;;;;;;;;;24.36;100.00;97978.94;5079207;28;20022;-75
2023/08/14 04:30:19;;;;;;;;;;;;;;;24.26;100.00;97978.69;5057142;28;19964;-75
2023/08/14 04:32:45;;;;;;;;;;;;;;;24.29;100.00;97977.97;5081720;28;19931;-75
2023/08/14 04:35:13;;;;;;;;;;;;;;;24.24;100.00;97978.22;5079570;28;19943;-75
2023/08/14 04:37:39;;;;;;;;;;;;;;;24.24;100.00;97976.28;5072658;28;20011;-75
2023/08/14 04:40:06;;;;;;;;;;;;;;;24.27;100.00;97981.03;5083483;28;19924;-75
2023/08/14 04:42:33;;;;;;;;;;;;;;;24.28;100.00;97982.63;5074359;28;19928;-75
2023/08/14 04:45:00;;;;;;;;;;;;;;;24.30;100.00;97980.34;5082561;28;19931;-75
2023/08/14 04:47:26;;;;;;;;;;;;;;;24.30;100.00;97974.88;5060753;28;20028;-76
2023/08/14 04:49:53;;;;;;;;;;;;;;;24.36;100.00;97968.03;5075898;28;19928;-75
2023/08/14 04:52:22;;;;;;;;;;;;;;;24.31;100.00;97971.03;5065563;28;19924;-75
2023/08/14 04:54:48;;;;;;;;;;;;;;;24.38;100.00;97971.22;5080504;28;20567;-75
2023/08/14 04:57:14;;;;;;;;;;;;;;;24.34;100.00;97955.88;5075551;28;20007;-76
2023/08/14 04:59:41;;;;;;;;;;;;;;;24.08;100.00;97956.34;5075639;28;19936;-76
2023/08/14 05:02:07;;;;;;;;;;;;;;;24.13;100.00;97977.97;5079996;28;19932;-74
2023/08/14 05:04:33;;;;;;;;;;;;;;;24.16;100.00;97971.78;5078119;28;20014;-75
2023/08/14 05:07:00;;;;;;;;;;;;;;;24.16;100.00;97969.06;5053320;28;20407;-75
2023/08/14 05:09:27;;;;;;;;;;;;;;;24.17;100.00;97965.19;5079207;28;19932;-74
2023/08/14 05:11:54;;;;;;;;;;;;;;;24.14;100.00;97960.41;5081713;28;19928;-75
2023/08/14 05:14:20;;;;;;;;;;;;;;;24.21;100.00;97973.47;5058919;28;20019;-75
2023/08/14 05:16:47;;;;;;;;;;;;;;;24.20;100.00;97978.16;5080488;28;20015;-75
2023/08/14 05:19:13;;;;;;;;;;;;;;;24.27;100.00;97991.97;5079404;28;20411;-75
2023/08/14 05:21:39;;;;;;;;;;;;;;;24.33;100.00;97989.75;5083353;28;20421;-75
2023/08/14 05:24:06;;;;;;;;;;;;;;;24.36;100.00;98000.78;5057229;28;20002;-76
2023/08/14 05:26:33;;;;;;;;;;;;;;;24.35;100.00;97988.28;5079584;28;19955;-76
2023/08/14 05:29:00;;;;;;;;;;;;;;;24.13;100.00;97981.47;5074035;28;20092;-75
2023/08/14 05:31:26;;;;;;;;;;;;;;;23.70;100.00;97999.72;5078117;28;19975;-75
2023/08/14 05:33:53;;;;;;;;;;;;;;;23.82;100.00;98002.38;5074733;28;20009;-74
2023/08/14 05:36:19;;;;;;;;;;;;;;;23.76;100.00;97995.59;5074867;28;19928;-75
2023/08/14 05:38:46;;;;;;;;;;;;;;;23.33;100.00;97990.81;5078433;28;20531;-76
2023/08/14 05:41:12;;;;;;;;;;;;;;;23.11;100.00;98000.25;5077105;28;19951;-76
2023/08/14 05:43:40;;;;;;;;;;;;;;;23.05;100.00;97990.75;5079109;28;19935;-75
2023/08/14 05:46:06;;;;;;;;;;;;;;;22.97;100.00;97994.34;5082290;28;20035;-75
2023/08/14 05:48:33;;;;;;;;;;;;;;;23.07;100.00;97993.91;5078269;28;19928;-75
2023/08/14 05:50:59;;;;;;;;;;;;;;;23.06;100.00;98012.19;5074634;28;19928;-75
2023/08/14 05:53:25;;;;;;;;;;;;;;;23.36;100.00;98026.34;5083739;28;19971;-75
2023/08/14 05:55:52;;;;;;;;;;;;;;;23.57;100.00;98029.75;5072380;28;20503;-74
2023/08/14 05:58:18;;;;;;;;;;;;;;;23.69;100.00;98020.72;5077634;28;19924;-74
2023/08/14 06:00:46;;;;;;;;;;;;;;;23.92;100.00;98029.19;5079284;28;19946;-75
2023/08/14 06:03:12;;;;;;;;;;;;;;;24.13;100.00;98018.88;5063675;28;19925;-76
2023/08/14 06:05:38;;;;;;;;;;;;;;;23.75;100.00;98015.81;5059636;28;20023;-75
2023/08/14 06:08:05;;;;;;;;;;;;;;;23.40;100.00;98016.34;5080935;28;20311;-75
2023/08/14 06:10:31;;;;;;;;;;;;;;;23.12;100.00;98002.63;5064846;28;19935;-76
2023/08/14 06:12:58;;;;;;;;;;;;;;;23.17;100.00;98011.72;5061843;28;20023;-75
2023/08/14 06:15:24;;;;;;;;;;;;;;;23.42;100.00;98008.66;5065275;28;19934;-76
2023/08/14 06:17:53;;;;;;;;;;;;;;;23.61;100.00;98021.66;5079459;28;20391;-75
2023/08/14 06:20:19;;;;;;;;;;;;;;;23.71;100.00;98018.44;5082236;28;20414;-74
2023/08/14 06:22:46;;;;;;;;;;;;;;;23.91;100.00;98011.22;5079951;28;20368;-75
2023/08/14 06:25:13;;;;;;;;;;;;;;;23.93;100.00;98008.94;5059597;28;19936;-75
2023/08/14 06:27:39;;;;;;;;;;;;;;;23.76;100.00;97996.41;5073189;28;19989;-75
2023/08/14 06:30:07;;;;;;;;;;;;;;;23.72;100.00;97989.25;5080158;28;20027;-75
2023/08/14 06:32:34;;;;;;;;;;;;;;;23.82;100.00;97991.47;5081193;28;19928;-76
2023/08/14 06:35:02;;;;;;;;;;;;;;;23.78;100.00;98001.50;5079822;28;19924;-74
2023/08/14 06:37:28;;;;;;;;;;;;;;;23.88;100.00;97996.34;5080748;28;19932;-75
2023/08/14 06:39:54;;;;;;;;;;;;;;;24.12;100.00;97998.97;5078121;28;19973;-75
2023/08/14 06:42:21;;;;;;;;;;;;;;;24.26;100.00;98006.78;5080368;28;19932;-76
2023/08/14 06:44:47;;;;;;;;;;;;;;;24.19;100.00;98006.56;5076286;28;19928;-74
2023/08/14 06:47:13;;;;;;;;;;;;;;;24.04;100.00;98004.56;5080024;28;19962;-75
2023/08/14 06:49:40;;;;;;;;;;;;;;;23.92;100.00;98001.91;5075302;28;20551;-75
2023/08/14 06:52:07;;;;;;;;;;;;;;;23.62;100.00;98004.94;5077982;28;20361;-74
2023/08/14 06:54:34;;;;;;;;;;;;;;;23.63;100.00;98012.00;5082321;28;20016;-75
2023/08/14 06:57:01;;;;;;;;;;;;;;;23.62;100.00;98002.22;5077555;28;19934;-74
2023/08/14 06:59:27;;;;;;;;;;;;;;;23.65;100.00;97998.00;5081290;28;19932;-75
2023/08/14 07:01:54;;;;;;;;;;;;;;;23.72;100.00;98005.59;5079519;28;20435;-76
2023/08/14 07:04:21;;;;;;;;;;;;;;;23.77;100.00;98002.66;5062010;28;20031;-75
2023/08/14 07:06:47;;;;;;;;;;;;;;;23.88;100.00;98009.19;5079634;28;20019;-75
2023/08/14 07:09:16;;;;;;;;;;;;;;;24.03;100.00;98014.69;5084537;28;20028;-75
2023/08/14 07:11:42;;;;;;;;;;;;;;;24.14;100.00;98021.25;5079629;28;20334;-75
2023/08/14 07:14:09;;;;;;;;;;;;;;;24.12;100.00;98017.28;5078966;28;19944;-75
2023/08/14 07:16:36;;;;;;;;;;;;;;;24.22;100.00;98011.34;5080012;28;20404;-75
2023/08/14 07:19:02;;;;;;;;;;;;;;;24.31;100.00;98013.91;5079937;28;19932;-76
2023/08/14 07:21:29;;;;;;;;;;;;;;;24.44;100.00;98010.75;5085871;28;20035;-75
2023/08/14 07:23:55;;;;;;;;;;;;;;;24.53;100.00;98008.66;5077978;28;19964;-76
2023/08/14 07:26:23;;;;;;;;;;;;;;;24.42;100.00;98015.75;5078867;28;19925;-75
2023/08/14 07:28:49;;;;;;;;;;;;;;;24.28;100.00;98011.88;5073748;28;20437;-75
2023/08/14 07:31:15;;;;;;;;;;;;;;;24.17;100.00;98017.03;5072829;28;19947;-76
2023/08/14 07:33:42;;;;;;;;;;;;;;;24.16;100.00;98016.25;5082891;28;19928;-76
2023/08/14 07:36:08;;;;;;;;;;;;;;;24.23;100.00;98012.13;5076903;28;19950;-76
2023/08/14 07:38:34;;;;;;;;;;;;;;;24.44;100.00;98018.94;5063409;28;20007;-75
2023/08/14 07:41:01;;;;;;;;;;;;;;;24.60;100.00;98022.47;5074984;28;20271;-75
2023/08/14 07:43:29;;;;;;;;;;;;;;;24.65;100.00;98019.47;5077056;28;19935;-75
2023/08/14 07:45:55;;;;;;;;;;;;;;;24.61;100.00;98015.84;5082975;28;19932;-75
2023/08/14 07:48:22;;;;;;;;;;;;;;;24.62;100.00;98014.72;5076913;28;19924;-75
2023/08/14 07:50:51;;;;;;;;;;;;;;;24.69;100.00;98004.00;5063317;28;20121;-74
2023/08/14 07:53:17;;;;;;;;;;;;;;;24.79;100.00;98004.59;5084841;28;19928;-75
2023/08/14 07:55:44;;;;;;;;;;;;;;;24.78;100.00;98011.19;5061777;28;19955;-75
2023/08/14 07:58:10;;;;;;;;;;;;;;;24.64;100.00;98011.63;5075533;28;20019;-74
2023/08/14 08:00:38;;;;;;;;;;;;;;;24.67;100.00;98006.25;5075523;28;19975;-76
2023/08/14 08:03:05;;;;;;;;;;;;;;;24.66;100.00;97999.19;5076099;28;19928;-75
2023/08/14 08:05:31;;;;;;;;;;;;;;;24.76;100.00;97997.88;5078873;28;20053;-75
2023/08/14 08:07:58;;;;;;;;;;;;;;;24.88;100.00;98006.00;5082327;28;19930;-76
2023/08/14 08:10:24;;;;;;;;;;;;;;;24.99;100.00;98004.34;5083510;28;20031;-75
2023/08/14 08:12:50;;;;;;;;;;;;;;;25.12;100.00;97999.56;5081594;28;20030;-76
2023/08/14 08:15:17;;;;;;;;;;;;;;;25.19;100.00;97995.03;5084228;28;20588;-76
2023/08/14 08:17:44;;;;;;;;;;;;;;;25.27;100.00;98006.13;5076035;28;19994;-75
2023/08/14 08:20:11;;;;;;;;;;;;;;;25.42;100.00;97999.81;5075949;28;19946;-75
2023/08/14 08:22:38;;;;;;;;;;;;;;;25.50;100.00;97996.91;5052963;28;19967;-75
2023/08/14 08:25:04;;;;;;;;;;;;;;;25.67;100.00;98004.72;5078189;28;20003;-76
2023/08/14 08:27:31;;;;;;;;;;;;;;;25.73;100.00;97995.06;5074118;28;19928;-75
2023/08/14 08:29:57;;;;;;;;;;;;;;;25.67;100.00;98004.72;5081185;28;19936;-75
2023/08/14 08:32:24;;;;;;;;;;;;;;;25.64;100.00;98010.09;5082943;28;20026;-75
2023/08/14 08:34:53;;;;;;;;;;;;;;;25.72;100.00;98011.81;5082581;28;20015;-74
2023/08/14 08:37:20;;;;;;;;;;;;;;;25.63;100.00;98003.84;5071863;28;19932;-76
2023/08/14 08:39:46;;;;;;;;;;;;;;;25.69;100.00;98007.88;5055721;28;20019;-75
2023/08/14 08:42:13;;;;;;;;;;;;;;;25.78;100.00;98002.19;5079198;28;20027;-76
2023/08/14 08:44:44;;;;;;;;;;;;;;;25.83;100.00;98001.91;5073098;28;20018;-75
2023/08/14 08:47:14;;;;;;;;;;;;;;;25.93;100.00;97992.34;5071269;28;20021;-76
2023/08/14 08:49:41;;;;;;;;;;;;;;;26.02;100.00;97987.44;5073053;28;19933;-74
2023/08/14 08:52:08;;;;;;;;;;;;;;;26.12;100.00;97992.31;5084031;28;19928;-75
2023/08/14 08:54:35;;;;;;;;;;;;;;;26.06;100.00;97989.06;5072141;28;19928;-77
2023/08/14 08:57:02;;;;;;;;;;;;;;;26.08;100.00;97997.72;5083364;28;20007;-76
2023/08/14 08:59:28;;;;;;;;;;;;;;;26.25;100.00;97980.84;5078142;28;19928;-75
2023/08/14 09:01:55;;;;;;;;;;;;;;;26.31;100.00;97978.59;5082331;28;19934;-75
2023/08/14 09:04:21;;;;;;;;;;;;;;;26.44;100.00;97979.22;5082764;28;19959;-76
2023/08/14 09:06:48;;;;;;;;;;;;;;;26.51;100.00;97976.59;5074104;28;20011;-74
2023/08/14 09:09:16;;;;;;;;;;;;;;;26.56;100.00;97979.81;5076586;28;20502;-75
2023/08/14 09:11:42;;;;;;;;;;;;;;;26.61;100.00;97976.00;5083188;28;19928;-76
2023/08/14 09:14:09;;;;;;;;;;;;;;;26.69;100.00;97981.22;5053688;28;19978;-76
2023/08/14 09:16:35;;;;;;;;;;;;;;;26.76;100.00;97978.59;5080019;28;20309;-75
2023/08/14 09:19:01;;;;;;;;;;;;;;;26.65;100.00;97976.84;5046599;28;20468;-75
2023/08/14 09:21:29;;;;;;;;;;;;;;;26.61;100.00;97976.78;5077874;28;20012;-75
2023/08/14 09:23:56;;;;;;;;;;;;;;;26.67;100.00;97969.84;5075709;28;19931;-74
2023/08/14 09:26:23;;;;;;;;;;;;;;;26.77;100.00;97969.22;5078048;28;19962;-76
2023/08/14 09:28:50;;;;;;;;;;;;;;;26.88;100.00;97982.31;5058382;28;19928;-75
2023/08/14 09:31:16;;;;;;;;;;;;;;;26.91;100.00;97971.44;5081085;28;20405;-75
2023/08/14 09:33:43;;;;;;;;;;;;;;;26.96;100.00;97976.59;5081116;28;20023;-76
2023/08/14 09:36:11;;;;;;;;;;;;;;;26.88;100.00;97983.13;5068107;28;19930;-77
2023/08/14 09:38:37;;;;;;;;;;;;;;;26.95;100.00;97985.19;5061945;28;19939;-75
2023/08/14 09:41:03;;;;;;;;;;;;;;;26.98;100.00;97974.28;5071546;28;20015;-76
2023/08/14 09:43:32;;;;;;;;;;;;;;;26.98;100.00;97979.75;5063429;28;20107;-75
2023/08/14 09:45:59;;;;;;;;;;;;;;;26.87;100.00;97981.53;5074866;28;20031;-75
2023/08/14 09:48:39;;;;;;;;;;;;;;;27.03;100.00;97982.19;5078466;28;20458;-75
2023/08/14 09:51:06;;;;;;;;;;;;;;;27.16;100.00;97982.75;5079601;28;19932;-75
2023/08/14 09:53:43;;;;;;;;;;;;;;;27.31;100.00;97970.81;5081006;28;19928;-75
2023/08/14 09:56:10;;;;;;;;;;;;;;;27.42;100.00;97982.72;5084106;28;19963;-75
2023/08/14 09:58:37;;;;;;;;;;;;;;;27.47;100.00;97976.97;5085833;28;19946;-75
2023/08/14 10:01:04;;;;;;;;;;;;;;;27.27;100.00;97970.78;5083032;28;19981;-75
2023/08/14 10:03:31;;;;;;;;;;;;;;;27.25;100.00;97972.31;5078365;28;19934;-76
2023/08/14 10:05:58;;;;;;;;;;;;;;;27.45;100.00;97979.25;5078255;28;19924;-75
2023/08/14 10:08:24;;;;;;;;;;;;;;;27.53;100.00;97971.94;5084964;28;20019;-76
2023/08/14 10:10:51;;;;;;;;;;;;;;;27.52;100.00;97968.41;5061377;28;20368;-76
2023/08/14 10:13:18;;;;;;;;;;;;;;;27.63;100.00;97966.59;5077875;28;20456;-75
2023/08/14 10:15:47;;;;;;;;;;;;;;;27.65;100.00;97964.25;5075732;28;20023;-75
2023/08/14 10:18:15;;;;;;;;;;;;;;;27.73;100.00;97957.69;5060638;28;19931;-77
2023/08/14 10:20:42;;;;;;;;;;;;;;;27.69;100.00;97953.31;5066481;28;19975;-75
2023/08/14 10:23:09;;;;;;;;;;;;;;;27.80;100.00;97946.00;5077633;28;20013;-77
2023/08/14 10:25:36;;;;;;;;;;;;;;;28.00;100.00;97943.88;5072717;28;19999;-76
2023/08/14 10:28:03;;;;;;;;;;;;;;;28.00;100.00;97941.13;5070036;28;19924;-75
2023/08/14 10:30:30;;;;;;;;;;;;;;;27.84;100.00;97950.38;5083462;28;19924;-75
2023/08/14 10:32:57;;;;;;;;;;;;;;;27.97;100.00;97941.88;5077657;28;20416;-75
2023/08/14 10:35:25;;;;;;;;;;;;;;;28.05;100.00;97938.06;5071444;28;19975;-75
2023/08/14 10:37:52;;;;;;;;;;;;;;;28.18;100.00;97942.91;5081720;28;20411;-76
2023/08/14 10:40:20;;;;;;;;;;;;;;;28.32;100.00;97942.25;5080167;28;19936;-74
2023/08/14 10:42:47;;;;;;;;;;;;;;;28.22;100.00;97932.75;5081644;28;19927;-75
2023/08/14 10:45:16;;;;;;;;;;;;;;;28.11;100.00;97926.34;5078200;28;20028;-75
2023/08/14 10:47:42;;;;;;;;;;;;;;;28.37;100.00;97928.19;5079479;28;19924;-75
2023/08/14 10:50:15;;;;;;;;;;;;;;;28.44;100.00;97928.25;5078494;28;19966;-75
2023/08/14 10:52:42;;;;;;;;;;;;;;;28.39;100.00;97929.38;5076682;28;19991;-75
2023/08/14 10:55:14;;;;;;;;;;;;;;;28.41;100.00;97923.47;5060294;28;20493;-75
2023/08/14 10:57:40;;;;;;;;;;;;;;;28.37;100.00;97926.22;5075882;28;19932;-75
2023/08/14 11:00:18;;;;;;;;;;;;;;;28.50;100.00;97918.50;5073336;28;19938;-75
2023/08/14 11:02:49;;;;;;;;;;;;;;;28.37;100.00;97915.25;5062629;28;20333;-75
2023/08/14 11:05:17;;;;;;;;;;;;;;;28.44;100.00;97922.75;5072589;28;19932;-75
2023/08/14 11:07:56;;;;;;;;;;;;;;;28.77;100.00;97913.59;5074113;28;19924;-75
2023/08/14 11:10:24;;;;;;;;;;;;;;;28.78;100.00;97910.47;5078885;28;19928;-76
2023/08/14 11:12:51;;;;;;;;;;;;;;;28.68;100.00;97913.94;5076567;28;19925;-76
2023/08/14 11:15:19;;;;;;;;;;;;;;;28.65;100.00;97913.91;5077575;28;20043;-75
2023/08/14 11:17:46;;;;;;;;;;;;;;;28.73;100.00;97915.53;5079514;28;19951;-75
2023/08/14 11:20:13;;;;;;;;;;;;;;;28.72;100.00;97913.97;5084411;28;19934;-76
2023/08/14 11:22:43;;;;;;;;;;;;;;;28.50;100.00;97906.69;5075712;28;19928;-75
2023/08/14 11:25:10;;;;;;;;;;;;;;;28.66;100.00;97910.78;5077229;28;20502;-75
2023/08/14 11:27:36;;;;;;;;;;;;;;;28.87;100.00;97910.91;5076783;28;20572;-76
2023/08/14 11:30:02;;;;;;;;;;;;;;;29.07;100.00;97905.94;5054249;28;19934;-75
2023/08/14 11:32:31;;;;;;;;;;;;;;;29.10;100.00;97909.88;5076765;28;19964;-76
2023/08/14 11:34:57;;;;;;;;;;;;;;;29.27;100.00;97898.22;5074770;28;19928;-75
2023/08/14 11:37:24;;;;;;;;;;;;;;;29.27;100.00;97899.00;5073585;28;20516;-75
2023/08/14 11:39:51;;;;;;;;;;;;;;;29.38;97.70;97905.34;5075651;28;19994;-75
2023/08/14 11:42:18;;;;;;;;;;;;;;;29.12;100.00;97904.78;5072635;28;19928;-75
2023/08/14 11:44:44;;;;;;;;;;;;;;;29.20;100.00;97900.91;5083812;28;20596;-75
2023/08/14 11:47:11;;;;;;;;;;;;;;;29.24;100.00;97910.00;5079837;28;19934;-74
2023/08/14 11:49:38;;;;;;;;;;;;;;;29.24;100.00;97894.28;5082509;28;19970;-75
2023/08/14 11:52:04;;;;;;;;;;;;;;;29.28;100.00;97894.28;5085494;28;20022;-76
2023/08/14 11:54:31;;;;;;;;;;;;;;;29.37;100.00;97895.50;5081427;28;19935;-76
2023/08/14 11:57:01;;;;;;;;;;;;;;;29.48;99.27;97892.81;5084611;28;20001;-75
2023/08/14 11:59:27;;;;;;;;;;;;;;;29.55;98.70;97895.59;5076028;28;20023;-75
2023/08/14 12:01:53;;;;;;;;;;;;;;;29.57;99.05;97895.97;5082442;28;20007;-75
2023/08/14 12:04:21;;;;;;;;;;;;;;;29.72;94.46;97878.31;5085166;28;20023;-74
2023/08/14 12:06:47;;;;;;;;;;;;;;;29.58;97.53;97886.56;5075554;28;19924;-75
2023/08/14 12:09:13;;;;;;;;;;;;;;;29.79;100.00;97878.34;5077515;28;19935;-76
2023/08/14 12:11:40;;;;;;;;;;;;;;;29.74;100.00;97884.22;5084733;28;19924;-75
2023/08/14 12:14:08;;;;;;;;;;;;;;;29.62;100.00;97884.59;5054301;28;19928;-75
2023/08/14 12:16:38;;;;;;;;;;;;;;;29.70;100.00;97872.44;5080602;28;20031;-76
2023/08/14 12:19:06;;;;;;;;;;;;;;;29.32;100.00;97875.84;5079402;28;20032;-75
2023/08/14 12:21:32;;;;;;;;;;;;;;;29.09;100.00;97878.81;5084623;28;20026;-75
2023/08/14 12:23:59;;;;;;;;;;;;;;;28.96;100.00;97876.81;5077253;28;19931;-75
2023/08/14 12:26:26;;;;;;;;;;;;;;;28.94;100.00;97875.22;5084889;28;20391;-76
2023/08/14 12:28:52;;;;;;;;;;;;;;;29.08;100.00;97873.72;5076976;28;20011;-74
2023/08/14 12:31:20;;;;;;;;;;;;;;;28.96;100.00;97874.06;5082493;28;20447;-75
2023/08/14 12:33:46;;;;;;;;;;;;;;;29.03;100.00;97874.88;5064821;28;20031;-75
2023/08/14 12:36:12;;;;;;;;;;;;;;;28.90;100.00;97870.91;5069342;28;20030;-75